ADDS METAR Data INFO
IDs: Format: Raw Decoded Include TAF

Data at: 0040 UTC 21 Jan 2018

METAR for:KHAO (Hamilton/Butler Cnty, OH, US)
Text:KHAO 210020Z AUTO 20004KT 10SM BKN027 OVC050 08/01 A3011 RMK AO2 T00830006
Temperature: 8.3°C ( 47°F)
Dewpoint: 0.6°C ( 33°F) [RH = 58%]
Pressure (altimeter):30.11 inches Hg (1019.7 mb)
Winds:from the SSW (200 degrees) at 5 MPH (4 knots; 2.1 m/s)
Visibility:10 or more sm (16+ km)
Ceiling:2700 feet AGL
Clouds: broken clouds at 2700 feet AGL, overcast cloud deck at 5000 feet AGL
QC Flag:automated observation with no human augmentation